Terminal Aerodrome Forecast
Issued by NWS Cleveland, OH

Home | Current Version | Previous Version | Graphics & Text | Print | Product List | Glossary On
Versions: 1 2 3 4 5 6 7 8 9 10 11 12 13 14 15 16 17 18 19 20 21 22 23 24 25
310
FTUS41 KCLE 290539
TAFMFD
TAF
KMFD 290539Z 2906/3006 05004KT 6SM BR OVC005
     FM290800 04003KT 4SM BR OVC004
      TEMPO 2910/2912 1SM BR OVC002
     FM291200 35005KT 3SM BR OVC005
     FM291500 32006KT P6SM OVC008
     FM291800 35007KT P6SM OVC015
     FM300100 36004KT P6SM BKN035=

USA.gov is the U.S. government's official web portal to all federal, state and local government web resources and services.